sensor_id;sensor_type;location;lat;lon;timestamp;P1;durP1;ratioP1;P2;durP2;ratioP2
31347;SDS011;21711;49.708;18.568;2023-03-23T00:01:10;9.85;;;5.13;;
31347;SDS011;21711;49.708;18.568;2023-03-23T00:03:38;9.30;;;5.93;;
31347;SDS011;21711;49.708;18.568;2023-03-23T00:06:06;9.23;;;5.20;;
31347;SDS011;21711;49.708;18.568;2023-03-23T00:08:34;10.98;;;5.85;;
31347;SDS011;21711;49.708;18.568;2023-03-23T00:11:10;8.73;;;4.88;;
31347;SDS011;21711;49.708;18.568;2023-03-23T00:13:45;11.43;;;5.65;;
31347;SDS011;21711;49.708;18.568;2023-03-23T00:16:17;8.30;;;4.65;;
31347;SDS011;21711;49.708;18.568;2023-03-23T00:18:56;8.10;;;4.95;;
31347;SDS011;21711;49.708;18.568;2023-03-23T00:21:47;9.93;;;5.05;;
31347;SDS011;21711;49.708;18.568;2023-03-23T00:24:14;9.57;;;4.85;;
31347;SDS011;21711;49.708;18.568;2023-03-23T00:26:43;12.40;;;6.07;;
31347;SDS011;21711;49.708;18.568;2023-03-23T00:31:42;9.88;;;5.22;;
31347;SDS011;21711;49.708;18.568;2023-03-23T00:34:12;10.68;;;4.97;;
31347;SDS011;21711;49.708;18.568;2023-03-23T00:36:51;11.77;;;4.88;;
31347;SDS011;21711;49.708;18.568;2023-03-23T00:39:22;9.25;;;5.50;;
31347;SDS011;21711;49.708;18.568;2023-03-23T00:41:51;9.05;;;5.28;;
31347;SDS011;21711;49.708;18.568;2023-03-23T00:44:18;11.20;;;4.88;;
31347;SDS011;21711;49.708;18.568;2023-03-23T00:46:48;11.45;;;5.68;;
31347;SDS011;21711;49.708;18.568;2023-03-23T00:49:16;9.93;;;4.95;;
31347;SDS011;21711;49.708;18.568;2023-03-23T00:51:50;8.65;;;5.13;;
31347;SDS011;21711;49.708;18.568;2023-03-23T00:54:22;8.32;;;4.45;;
31347;SDS011;21711;49.708;18.568;2023-03-23T00:56:50;10.80;;;5.20;;
31347;SDS011;21711;49.708;18.568;2023-03-23T00:59:17;10.07;;;5.03;;
31347;SDS011;21711;49.708;18.568;2023-03-23T01:01:44;7.97;;;4.40;;
31347;SDS011;21711;49.708;18.568;2023-03-23T01:04:12;8.82;;;4.65;;
31347;SDS011;21711;49.708;18.568;2023-03-23T01:06:41;6.57;;;4.43;;
31347;SDS011;21711;49.708;18.568;2023-03-23T01:09:11;8.52;;;4.35;;
31347;SDS011;21711;49.708;18.568;2023-03-23T01:11:42;10.25;;;4.57;;
31347;SDS011;21711;49.708;18.568;2023-03-23T01:14:10;12.43;;;4.82;;
31347;SDS011;21711;49.708;18.568;2023-03-23T01:16:38;9.18;;;4.65;;
31347;SDS011;21711;49.708;18.568;2023-03-23T01:19:04;7.65;;;4.40;;
31347;SDS011;21711;49.708;18.568;2023-03-23T01:21:31;6.90;;;3.75;;
31347;SDS011;21711;49.708;18.568;2023-03-23T01:23:57;7.80;;;4.40;;
31347;SDS011;21711;49.708;18.568;2023-03-23T01:26:24;6.82;;;4.03;;
31347;SDS011;21711;49.708;18.568;2023-03-23T01:28:53;6.45;;;4.18;;
31347;SDS011;21711;49.708;18.568;2023-03-23T01:31:20;7.72;;;4.88;;
31347;SDS011;21711;49.708;18.568;2023-03-23T01:33:50;7.93;;;4.50;;
31347;SDS011;21711;49.708;18.568;2023-03-23T01:36:20;9.23;;;4.40;;
31347;SDS011;21711;49.708;18.568;2023-03-23T01:38:58;7.80;;;3.30;;
31347;SDS011;21711;49.708;18.568;2023-03-23T01:41:30;10.75;;;4.80;;
31347;SDS011;21711;49.708;18.568;2023-03-23T01:44:07;7.10;;;4.13;;
31347;SDS011;21711;49.708;18.568;2023-03-23T01:47:15;8.40;;;4.13;;
31347;SDS011;21711;49.708;18.568;2023-03-23T01:49:50;9.38;;;4.22;;
31347;SDS011;21711;49.708;18.568;2023-03-23T01:52:21;9.23;;;4.70;;
31347;SDS011;21711;49.708;18.568;2023-03-23T01:54:57;6.18;;;3.30;;
31347;SDS011;21711;49.708;18.568;2023-03-23T01:57:24;6.25;;;3.15;;
31347;SDS011;21711;49.708;18.568;2023-03-23T01:59:55;5.20;;;3.42;;
31347;SDS011;21711;49.708;18.568;2023-03-23T02:02:26;7.82;;;3.03;;
31347;SDS011;21711;49.708;18.568;2023-03-23T02:04:55;8.07;;;3.97;;
31347;SDS011;21711;49.708;18.568;2023-03-23T02:07:29;6.03;;;3.20;;
31347;SDS011;21711;49.708;18.568;2023-03-23T02:09:58;7.45;;;4.30;;
31347;SDS011;21711;49.708;18.568;2023-03-23T02:12:28;9.80;;;4.93;;
31347;SDS011;21711;49.708;18.568;2023-03-23T02:14:54;7.85;;;5.20;;
31347;SDS011;21711;49.708;18.568;2023-03-23T02:34:50;10.60;;;5.43;;
31347;SDS011;21711;49.708;18.568;2023-03-23T02:37:32;8.50;;;5.30;;
31347;SDS011;21711;49.708;18.568;2023-03-23T02:40:06;8.45;;;5.50;;
31347;SDS011;21711;49.708;18.568;2023-03-23T02:42:42;7.45;;;3.97;;
31347;SDS011;21711;49.708;18.568;2023-03-23T02:45:13;9.38;;;4.93;;
31347;SDS011;21711;49.708;18.568;2023-03-23T02:47:41;7.40;;;4.70;;
31347;SDS011;21711;49.708;18.568;2023-03-23T02:50:09;7.35;;;4.20;;
31347;SDS011;21711;49.708;18.568;2023-03-23T02:52:42;9.02;;;4.25;;
31347;SDS011;21711;49.708;18.568;2023-03-23T02:55:11;8.15;;;4.45;;
31347;SDS011;21711;49.708;18.568;2023-03-23T02:57:40;9.43;;;4.50;;
31347;SDS011;21711;49.708;18.568;2023-03-23T03:00:11;10.23;;;4.70;;
31347;SDS011;21711;49.708;18.568;2023-03-23T03:02:42;9.65;;;5.03;;
31347;SDS011;21711;49.708;18.568;2023-03-23T03:08:45;8.57;;;4.38;;
31347;SDS011;21711;49.708;18.568;2023-03-23T03:11:20;7.05;;;4.25;;
31347;SDS011;21711;49.708;18.568;2023-03-23T03:19:44;7.47;;;4.00;;
31347;SDS011;21711;49.708;18.568;2023-03-23T03:22:14;8.13;;;4.15;;
31347;SDS011;21711;49.708;18.568;2023-03-23T03:24:42;6.78;;;3.75;;
31347;SDS011;21711;49.708;18.568;2023-03-23T03:27:13;9.60;;;3.45;;
31347;SDS011;21711;49.708;18.568;2023-03-23T03:29:47;8.70;;;3.92;;
31347;SDS011;21711;49.708;18.568;2023-03-23T03:32:20;6.90;;;3.97;;
31347;SDS011;21711;49.708;18.568;2023-03-23T03:34:52;8.88;;;4.32;;
31347;SDS011;21711;49.708;18.568;2023-03-23T03:37:19;7.05;;;3.67;;
31347;SDS011;21711;49.708;18.568;2023-03-23T03:39:47;6.93;;;4.45;;
31347;SDS011;21711;49.708;18.568;2023-03-23T03:42:13;6.15;;;3.90;;
31347;SDS011;21711;49.708;18.568;2023-03-23T03:44:39;9.07;;;4.40;;
31347;SDS011;21711;49.708;18.568;2023-03-23T03:47:06;8.15;;;3.63;;
31347;SDS011;21711;49.708;18.568;2023-03-23T03:49:32;8.73;;;4.13;;
31347;SDS011;21711;49.708;18.568;2023-03-23T03:51:58;8.60;;;4.32;;
31347;SDS011;21711;49.708;18.568;2023-03-23T03:54:34;8.00;;;4.40;;
31347;SDS011;21711;49.708;18.568;2023-03-23T03:57:00;8.40;;;5.05;;
31347;SDS011;21711;49.708;18.568;2023-03-23T03:59:52;8.48;;;3.60;;
31347;SDS011;21711;49.708;18.568;2023-03-23T04:02:18;8.43;;;4.72;;
31347;SDS011;21711;49.708;18.568;2023-03-23T04:04:48;9.27;;;4.88;;
31347;SDS011;21711;49.708;18.568;2023-03-23T04:07:18;7.78;;;4.03;;
31347;SDS011;21711;49.708;18.568;2023-03-23T04:09:45;10.20;;;4.35;;
31347;SDS011;21711;49.708;18.568;2023-03-23T04:12:14;11.37;;;4.50;;
31347;SDS011;21711;49.708;18.568;2023-03-23T04:14:56;8.02;;;4.10;;
31347;SDS011;21711;49.708;18.568;2023-03-23T04:17:31;9.85;;;4.68;;
31347;SDS011;21711;49.708;18.568;2023-03-23T04:19:57;7.22;;;4.40;;
31347;SDS011;21711;49.708;18.568;2023-03-23T04:22:27;9.65;;;4.82;;
31347;SDS011;21711;49.708;18.568;2023-03-23T04:24:58;8.73;;;4.25;;
31347;SDS011;21711;49.708;18.568;2023-03-23T04:27:28;10.02;;;4.82;;
31347;SDS011;21711;49.708;18.568;2023-03-23T04:29:57;8.95;;;4.50;;
31347;SDS011;21711;49.708;18.568;2023-03-23T04:32:32;7.47;;;4.20;;
31347;SDS011;21711;49.708;18.568;2023-03-23T04:34:59;7.10;;;4.28;;
31347;SDS011;21711;49.708;18.568;2023-03-23T04:37:32;6.72;;;4.45;;
31347;SDS011;21711;49.708;18.568;2023-03-23T04:39:59;8.02;;;4.80;;
31347;SDS011;21711;49.708;18.568;2023-03-23T04:42:28;7.07;;;3.85;;
31347;SDS011;21711;49.708;18.568;2023-03-23T04:45:20;8.25;;;4.25;;
31347;SDS011;21711;49.708;18.568;2023-03-23T04:47:49;9.85;;;4.47;;
31347;SDS011;21711;49.708;18.568;2023-03-23T04:50:28;11.30;;;4.65;;
31347;SDS011;21711;49.708;18.568;2023-03-23T04:53:02;10.00;;;4.70;;
31347;SDS011;21711;49.708;18.568;2023-03-23T04:55:32;8.25;;;4.45;;
31347;SDS011;21711;49.708;18.568;2023-03-23T04:58:06;7.63;;;4.30;;
31347;SDS011;21711;49.708;18.568;2023-03-23T05:00:40;6.43;;;3.97;;
31347;SDS011;21711;49.708;18.568;2023-03-23T05:03:09;7.35;;;4.20;;
31347;SDS011;21711;49.708;18.568;2023-03-23T05:05:36;8.77;;;4.57;;
31347;SDS011;21711;49.708;18.568;2023-03-23T05:08:06;8.48;;;4.80;;
31347;SDS011;21711;49.708;18.568;2023-03-23T05:10:35;7.90;;;4.13;;
31347;SDS011;21711;49.708;18.568;2023-03-23T05:13:07;5.93;;;3.80;;
31347;SDS011;21711;49.708;18.568;2023-03-23T05:15:33;8.57;;;3.92;;
31347;SDS011;21711;49.708;18.568;2023-03-23T05:18:01;8.00;;;4.40;;
31347;SDS011;21711;49.708;18.568;2023-03-23T05:20:30;6.72;;;4.00;;
31347;SDS011;21711;49.708;18.568;2023-03-23T05:23:02;8.13;;;4.03;;
31347;SDS011;21711;49.708;18.568;2023-03-23T05:25:32;10.38;;;4.20;;
31347;SDS011;21711;49.708;18.568;2023-03-23T05:28:07;6.63;;;3.88;;
31347;SDS011;21711;49.708;18.568;2023-03-23T05:30:51;7.20;;;4.00;;
31347;SDS011;21711;49.708;18.568;2023-03-23T05:33:20;6.53;;;3.70;;
31347;SDS011;21711;49.708;18.568;2023-03-23T05:36:25;6.72;;;3.88;;
31347;SDS011;21711;49.708;18.568;2023-03-23T05:39:13;7.03;;;3.88;;
31347;SDS011;21711;49.708;18.568;2023-03-23T05:41:58;10.82;;;4.93;;
31347;SDS011;21711;49.708;18.568;2023-03-23T05:44:31;6.57;;;3.70;;
31347;SDS011;21711;49.708;18.568;2023-03-23T05:46:59;6.00;;;3.67;;
31347;SDS011;21711;49.708;18.568;2023-03-23T05:49:26;6.82;;;3.65;;
31347;SDS011;21711;49.708;18.568;2023-03-23T05:51:53;10.73;;;3.40;;
31347;SDS011;21711;49.708;18.568;2023-03-23T05:54:19;5.55;;;3.67;;
31347;SDS011;21711;49.708;18.568;2023-03-23T05:56:47;6.20;;;3.30;;
31347;SDS011;21711;49.708;18.568;2023-03-23T05:59:39;6.00;;;3.65;;
31347;SDS011;21711;49.708;18.568;2023-03-23T06:02:11;10.85;;;3.35;;
31347;SDS011;21711;49.708;18.568;2023-03-23T06:04:40;6.88;;;3.20;;
31347;SDS011;21711;49.708;18.568;2023-03-23T06:07:16;4.28;;;2.70;;
31347;SDS011;21711;49.708;18.568;2023-03-23T06:09:54;5.15;;;3.05;;
31347;SDS011;21711;49.708;18.568;2023-03-23T06:12:23;3.80;;;2.67;;
31347;SDS011;21711;49.708;18.568;2023-03-23T06:15:12;7.00;;;3.00;;
31347;SDS011;21711;49.708;18.568;2023-03-23T06:18:05;7.82;;;3.35;;
31347;SDS011;21711;49.708;18.568;2023-03-23T06:20:38;5.97;;;3.33;;
31347;SDS011;21711;49.708;18.568;2023-03-23T06:23:25;5.28;;;2.90;;
31347;SDS011;21711;49.708;18.568;2023-03-23T06:25:53;5.85;;;3.88;;
31347;SDS011;21711;49.708;18.568;2023-03-23T06:28:26;2.95;;;2.50;;
31347;SDS011;21711;49.708;18.568;2023-03-23T06:30:53;5.07;;;2.70;;
31347;SDS011;21711;49.708;18.568;2023-03-23T06:33:20;6.30;;;2.38;;
31347;SDS011;21711;49.708;18.568;2023-03-23T06:36:06;7.00;;;2.67;;
31347;SDS011;21711;49.708;18.568;2023-03-23T06:38:43;5.57;;;2.33;;
31347;SDS011;21711;49.708;18.568;2023-03-23T06:41:10;5.63;;;2.63;;
31347;SDS011;21711;49.708;18.568;2023-03-23T06:43:36;7.43;;;3.20;;
31347;SDS011;21711;49.708;18.568;2023-03-23T06:46:13;6.63;;;2.85;;
31347;SDS011;21711;49.708;18.568;2023-03-23T06:48:39;4.82;;;2.53;;
31347;SDS011;21711;49.708;18.568;2023-03-23T06:51:06;6.78;;;3.05;;
31347;SDS011;21711;49.708;18.568;2023-03-23T06:53:34;4.47;;;2.72;;
31347;SDS011;21711;49.708;18.568;2023-03-23T06:56:03;9.00;;;2.83;;
31347;SDS011;21711;49.708;18.568;2023-03-23T06:58:30;4.38;;;2.63;;
31347;SDS011;21711;49.708;18.568;2023-03-23T07:00:57;4.93;;;2.80;;
31347;SDS011;21711;49.708;18.568;2023-03-23T07:03:34;6.05;;;2.45;;
31347;SDS011;21711;49.708;18.568;2023-03-23T07:06:02;6.57;;;2.50;;
31347;SDS011;21711;49.708;18.568;2023-03-23T07:08:33;5.03;;;2.60;;
31347;SDS011;21711;49.708;18.568;2023-03-23T07:11:00;5.28;;;2.88;;
31347;SDS011;21711;49.708;18.568;2023-03-23T07:13:29;6.72;;;2.78;;
31347;SDS011;21711;49.708;18.568;2023-03-23T07:15:58;8.17;;;2.93;;
31347;SDS011;21711;49.708;18.568;2023-03-23T07:18:26;5.72;;;2.60;;
31347;SDS011;21711;49.708;18.568;2023-03-23T07:20:55;6.18;;;2.17;;
31347;SDS011;21711;49.708;18.568;2023-03-23T07:23:28;4.47;;;2.10;;
31347;SDS011;21711;49.708;18.568;2023-03-23T07:26:08;5.85;;;2.38;;
31347;SDS011;21711;49.708;18.568;2023-03-23T07:28:38;6.55;;;1.98;;
31347;SDS011;21711;49.708;18.568;2023-03-23T07:31:23;6.20;;;2.00;;
31347;SDS011;21711;49.708;18.568;2023-03-23T07:33:50;3.85;;;1.63;;
31347;SDS011;21711;49.708;18.568;2023-03-23T07:36:18;5.30;;;2.20;;
31347;SDS011;21711;49.708;18.568;2023-03-23T07:38:44;4.30;;;1.65;;
31347;SDS011;21711;49.708;18.568;2023-03-23T07:41:11;2.75;;;1.52;;
31347;SDS011;21711;49.708;18.568;2023-03-23T07:43:40;4.57;;;2.17;;
31347;SDS011;21711;49.708;18.568;2023-03-23T07:46:19;2.65;;;1.80;;
31347;SDS011;21711;49.708;18.568;2023-03-23T07:49:09;4.82;;;1.90;;
31347;SDS011;21711;49.708;18.568;2023-03-23T07:51:41;6.30;;;2.63;;
31347;SDS011;21711;49.708;18.568;2023-03-23T07:54:10;9.02;;;2.38;;
31347;SDS011;21711;49.708;18.568;2023-03-23T07:57:15;7.45;;;2.85;;
31347;SDS011;21711;49.708;18.568;2023-03-23T07:59:48;4.75;;;2.85;;
31347;SDS011;21711;49.708;18.568;2023-03-23T08:02:14;10.13;;;3.15;;
31347;SDS011;21711;49.708;18.568;2023-03-23T08:04:53;6.15;;;3.45;;
31347;SDS011;21711;49.708;18.568;2023-03-23T08:07:21;5.18;;;3.33;;
31347;SDS011;21711;49.708;18.568;2023-03-23T08:10:17;4.68;;;3.17;;
31347;SDS011;21711;49.708;18.568;2023-03-23T08:13:12;3.33;;;2.60;;
31347;SDS011;21711;49.708;18.568;2023-03-23T08:15:50;2.83;;;1.90;;
31347;SDS011;21711;49.708;18.568;2023-03-23T08:18:27;3.47;;;2.38;;
31347;SDS011;21711;49.708;18.568;2023-03-23T08:20:54;5.20;;;2.15;;
31347;SDS011;21711;49.708;18.568;2023-03-23T08:23:32;3.08;;;1.80;;
31347;SDS011;21711;49.708;18.568;2023-03-23T08:26:21;4.68;;;2.38;;
31347;SDS011;21711;49.708;18.568;2023-03-23T08:29:20;4.30;;;2.08;;
31347;SDS011;21711;49.708;18.568;2023-03-23T08:32:03;3.05;;;2.10;;
31347;SDS011;21711;49.708;18.568;2023-03-23T08:34:41;3.50;;;2.47;;
31347;SDS011;21711;49.708;18.568;2023-03-23T08:37:23;5.70;;;2.70;;
31347;SDS011;21711;49.708;18.568;2023-03-23T08:39:52;4.10;;;2.63;;
31347;SDS011;21711;49.708;18.568;2023-03-23T08:42:49;2.67;;;2.08;;
31347;SDS011;21711;49.708;18.568;2023-03-23T08:45:50;4.30;;;2.50;;
31347;SDS011;21711;49.708;18.568;2023-03-23T08:48:55;5.13;;;2.63;;
31347;SDS011;21711;49.708;18.568;2023-03-23T08:52:02;4.60;;;2.33;;
31347;SDS011;21711;49.708;18.568;2023-03-23T08:58:09;4.18;;;2.42;;
31347;SDS011;21711;49.708;18.568;2023-03-23T09:00:54;5.82;;;2.65;;
31347;SDS011;21711;49.708;18.568;2023-03-23T09:03:28;3.97;;;2.92;;
31347;SDS011;21711;49.708;18.568;2023-03-23T09:06:14;9.52;;;4.13;;
31347;SDS011;21711;49.708;18.568;2023-03-23T09:08:44;5.47;;;3.95;;
31347;SDS011;21711;49.708;18.568;2023-03-23T09:11:10;5.75;;;3.72;;
31347;SDS011;21711;49.708;18.568;2023-03-23T09:13:37;5.45;;;3.28;;
31347;SDS011;21711;49.708;18.568;2023-03-23T09:16:05;5.88;;;3.38;;
31347;SDS011;21711;49.708;18.568;2023-03-23T09:18:33;4.97;;;2.63;;
31347;SDS011;21711;49.708;18.568;2023-03-23T09:21:00;3.85;;;2.35;;
31347;SDS011;21711;49.708;18.568;2023-03-23T09:23:28;4.32;;;2.72;;
31347;SDS011;21711;49.708;18.568;2023-03-23T09:25:55;5.28;;;2.90;;
31347;SDS011;21711;49.708;18.568;2023-03-23T09:28:21;3.63;;;2.50;;
31347;SDS011;21711;49.708;18.568;2023-03-23T09:30:47;4.80;;;2.53;;
31347;SDS011;21711;49.708;18.568;2023-03-23T09:33:14;3.80;;;2.90;;
31347;SDS011;21711;49.708;18.568;2023-03-23T09:35:41;4.30;;;2.58;;
31347;SDS011;21711;49.708;18.568;2023-03-23T09:38:08;4.55;;;2.45;;
31347;SDS011;21711;49.708;18.568;2023-03-23T09:49:01;8.15;;;3.50;;
31347;SDS011;21711;49.708;18.568;2023-03-23T09:54:46;5.38;;;3.13;;
31347;SDS011;21711;49.708;18.568;2023-03-23T10:05:41;5.85;;;3.53;;
31347;SDS011;21711;49.708;18.568;2023-03-23T10:16:24;4.90;;;3.17;;
31347;SDS011;21711;49.708;18.568;2023-03-23T10:19:11;6.47;;;3.63;;
31347;SDS011;21711;49.708;18.568;2023-03-23T10:22:10;6.43;;;3.47;;
31347;SDS011;21711;49.708;18.568;2023-03-23T10:30:02;7.68;;;4.18;;
31347;SDS011;21711;49.708;18.568;2023-03-23T10:33:15;5.20;;;3.38;;
31347;SDS011;21711;49.708;18.568;2023-03-23T10:38:51;5.30;;;3.45;;
31347;SDS011;21711;49.708;18.568;2023-03-23T10:41:33;4.63;;;2.90;;
31347;SDS011;21711;49.708;18.568;2023-03-23T10:43:59;4.75;;;2.88;;
31347;SDS011;21711;49.708;18.568;2023-03-23T10:46:41;6.57;;;3.42;;
31347;SDS011;21711;49.708;18.568;2023-03-23T10:57:45;6.40;;;2.85;;
31347;SDS011;21711;49.708;18.568;2023-03-23T11:00:26;5.90;;;2.58;;
31347;SDS011;21711;49.708;18.568;2023-03-23T11:03:04;5.13;;;2.85;;
31347;SDS011;21711;49.708;18.568;2023-03-23T11:05:56;4.97;;;2.35;;
31347;SDS011;21711;49.708;18.568;2023-03-23T11:08:30;5.68;;;2.47;;
31347;SDS011;21711;49.708;18.568;2023-03-23T11:11:21;5.63;;;2.20;;
31347;SDS011;21711;49.708;18.568;2023-03-23T11:13:56;6.05;;;2.40;;
31347;SDS011;21711;49.708;18.568;2023-03-23T11:16:59;5.15;;;2.40;;
31347;SDS011;21711;49.708;18.568;2023-03-23T11:19:29;7.07;;;3.10;;
31347;SDS011;21711;49.708;18.568;2023-03-23T11:24:33;4.78;;;2.50;;
31347;SDS011;21711;49.708;18.568;2023-03-23T11:27:08;6.40;;;2.42;;
31347;SDS011;21711;49.708;18.568;2023-03-23T11:29:37;5.85;;;2.90;;
31347;SDS011;21711;49.708;18.568;2023-03-23T11:32:19;4.78;;;2.80;;
31347;SDS011;21711;49.708;18.568;2023-03-23T11:34:57;5.40;;;2.42;;
31347;SDS011;21711;49.708;18.568;2023-03-23T11:37:34;4.72;;;2.83;;
31347;SDS011;21711;49.708;18.568;2023-03-23T11:42:43;29.00;;;2.97;;
31347;SDS011;21711;49.708;18.568;2023-03-23T11:54:15;6.63;;;2.20;;
31347;SDS011;21711;49.708;18.568;2023-03-23T11:56:54;5.35;;;2.03;;
31347;SDS011;21711;49.708;18.568;2023-03-23T11:59:28;3.72;;;2.17;;
31347;SDS011;21711;49.708;18.568;2023-03-23T12:08:34;4.47;;;2.65;;
31347;SDS011;21711;49.708;18.568;2023-03-23T12:14:35;4.80;;;2.22;;
31347;SDS011;21711;49.708;18.568;2023-03-23T12:23:13;3.35;;;2.35;;
31347;SDS011;21711;49.708;18.568;2023-03-23T12:25:57;4.57;;;1.70;;
31347;SDS011;21711;49.708;18.568;2023-03-23T12:46:01;5.03;;;1.80;;
31347;SDS011;21711;49.708;18.568;2023-03-23T12:48:37;5.15;;;1.92;;
31347;SDS011;21711;49.708;18.568;2023-03-23T12:51:15;2.80;;;2.05;;
31347;SDS011;21711;49.708;18.568;2023-03-23T12:53:55;2.80;;;1.60;;
31347;SDS011;21711;49.708;18.568;2023-03-23T12:57:18;3.67;;;1.67;;
31347;SDS011;21711;49.708;18.568;2023-03-23T13:00:05;3.58;;;1.73;;
31347;SDS011;21711;49.708;18.568;2023-03-23T13:02:40;2.80;;;1.65;;
31347;SDS011;21711;49.708;18.568;2023-03-23T13:07:56;4.63;;;1.88;;
31347;SDS011;21711;49.708;18.568;2023-03-23T13:10:47;6.35;;;1.40;;
31347;SDS011;21711;49.708;18.568;2023-03-23T13:13:20;2.93;;;2.17;;
31347;SDS011;21711;49.708;18.568;2023-03-23T13:22:21;3.67;;;1.30;;
31347;SDS011;21711;49.708;18.568;2023-03-23T13:25:10;5.53;;;1.40;;
31347;SDS011;21711;49.708;18.568;2023-03-23T13:27:44;2.63;;;1.58;;
31347;SDS011;21711;49.708;18.568;2023-03-23T13:30:21;11.55;;;1.70;;
31347;SDS011;21711;49.708;18.568;2023-03-23T13:32:49;2.35;;;1.63;;
31347;SDS011;21711;49.708;18.568;2023-03-23T13:35:18;5.53;;;1.75;;
31347;SDS011;21711;49.708;18.568;2023-03-23T13:37:49;5.20;;;1.70;;
31347;SDS011;21711;49.708;18.568;2023-03-23T13:42:54;6.20;;;1.50;;
31347;SDS011;21711;49.708;18.568;2023-03-23T13:45:45;2.67;;;1.75;;
31347;SDS011;21711;49.708;18.568;2023-03-23T13:50:48;7.43;;;1.67;;
31347;SDS011;21711;49.708;18.568;2023-03-23T13:53:28;3.75;;;1.48;;
31347;SDS011;21711;49.708;18.568;2023-03-23T13:56:18;5.78;;;1.77;;
31347;SDS011;21711;49.708;18.568;2023-03-23T13:59:03;3.17;;;2.00;;
31347;SDS011;21711;49.708;18.568;2023-03-23T14:01:42;4.10;;;1.40;;
31347;SDS011;21711;49.708;18.568;2023-03-23T14:04:18;3.40;;;1.60;;
31347;SDS011;21711;49.708;18.568;2023-03-23T14:06:46;6.25;;;1.42;;
31347;SDS011;21711;49.708;18.568;2023-03-23T14:09:26;2.30;;;1.42;;
31347;SDS011;21711;49.708;18.568;2023-03-23T14:12:03;4.85;;;2.15;;
31347;SDS011;21711;49.708;18.568;2023-03-23T14:14:41;3.88;;;1.95;;
31347;SDS011;21711;49.708;18.568;2023-03-23T14:17:16;2.65;;;1.77;;
31347;SDS011;21711;49.708;18.568;2023-03-23T14:19:58;4.07;;;1.77;;
31347;SDS011;21711;49.708;18.568;2023-03-23T14:22:35;2.85;;;1.88;;
31347;SDS011;21711;49.708;18.568;2023-03-23T14:25:15;2.28;;;1.50;;
31347;SDS011;21711;49.708;18.568;2023-03-23T14:27:46;3.30;;;1.83;;
31347;SDS011;21711;49.708;18.568;2023-03-23T14:30:13;3.22;;;1.77;;
31347;SDS011;21711;49.708;18.568;2023-03-23T14:32:43;4.40;;;1.70;;
31347;SDS011;21711;49.708;18.568;2023-03-23T14:37:51;3.33;;;1.80;;
31347;SDS011;21711;49.708;18.568;2023-03-23T14:40:19;8.75;;;1.88;;
31347;SDS011;21711;49.708;18.568;2023-03-23T14:42:45;2.10;;;1.40;;
31347;SDS011;21711;49.708;18.568;2023-03-23T14:45:14;4.97;;;1.77;;
31347;SDS011;21711;49.708;18.568;2023-03-23T14:47:47;3.83;;;1.83;;
31347;SDS011;21711;49.708;18.568;2023-03-23T14:50:22;4.05;;;1.55;;
31347;SDS011;21711;49.708;18.568;2023-03-23T14:52:49;4.30;;;1.77;;
31347;SDS011;21711;49.708;18.568;2023-03-23T14:55:19;3.88;;;1.85;;
31347;SDS011;21711;49.708;18.568;2023-03-23T14:57:48;6.68;;;1.77;;
31347;SDS011;21711;49.708;18.568;2023-03-23T15:00:16;4.93;;;2.38;;
31347;SDS011;21711;49.708;18.568;2023-03-23T15:02:52;6.15;;;1.83;;
31347;SDS011;21711;49.708;18.568;2023-03-23T15:05:32;3.63;;;2.00;;
31347;SDS011;21711;49.708;18.568;2023-03-23T15:08:04;5.00;;;2.60;;
31347;SDS011;21711;49.708;18.568;2023-03-23T15:10:36;7.97;;;3.35;;
31347;SDS011;21711;49.708;18.568;2023-03-23T15:13:02;6.88;;;2.50;;
31347;SDS011;21711;49.708;18.568;2023-03-23T15:15:33;5.20;;;2.33;;
31347;SDS011;21711;49.708;18.568;2023-03-23T15:18:01;3.85;;;1.73;;
31347;SDS011;21711;49.708;18.568;2023-03-23T15:20:45;3.40;;;2.28;;
31347;SDS011;21711;49.708;18.568;2023-03-23T15:23:15;4.32;;;2.40;;
31347;SDS011;21711;49.708;18.568;2023-03-23T15:25:49;5.47;;;1.85;;
31347;SDS011;21711;49.708;18.568;2023-03-23T15:28:18;8.38;;;1.70;;
31347;SDS011;21711;49.708;18.568;2023-03-23T15:30:54;3.55;;;1.73;;
31347;SDS011;21711;49.708;18.568;2023-03-23T15:33:25;4.53;;;1.50;;
31347;SDS011;21711;49.708;18.568;2023-03-23T15:35:56;5.43;;;1.75;;
31347;SDS011;21711;49.708;18.568;2023-03-23T15:38:28;3.10;;;1.30;;
31347;SDS011;21711;49.708;18.568;2023-03-23T15:40:58;2.63;;;1.50;;
31347;SDS011;21711;49.708;18.568;2023-03-23T15:43:27;5.80;;;1.87;;
31347;SDS011;21711;49.708;18.568;2023-03-23T15:46:04;3.50;;;1.52;;
31347;SDS011;21711;49.708;18.568;2023-03-23T15:48:47;2.78;;;1.52;;
31347;SDS011;21711;49.708;18.568;2023-03-23T15:51:24;3.42;;;1.80;;
31347;SDS011;21711;49.708;18.568;2023-03-23T15:53:53;2.05;;;1.38;;
31347;SDS011;21711;49.708;18.568;2023-03-23T15:56:21;2.90;;;1.75;;
31347;SDS011;21711;49.708;18.568;2023-03-23T15:58:48;3.00;;;1.70;;
31347;SDS011;21711;49.708;18.568;2023-03-23T16:01:26;6.30;;;1.77;;
31347;SDS011;21711;49.708;18.568;2023-03-23T16:03:56;5.47;;;2.03;;
31347;SDS011;21711;49.708;18.568;2023-03-23T16:06:33;2.63;;;1.58;;
31347;SDS011;21711;49.708;18.568;2023-03-23T16:09:02;2.50;;;1.50;;
31347;SDS011;21711;49.708;18.568;2023-03-23T16:11:32;2.95;;;1.50;;
31347;SDS011;21711;49.708;18.568;2023-03-23T16:13:59;5.47;;;2.15;;
31347;SDS011;21711;49.708;18.568;2023-03-23T16:18:58;7.20;;;2.20;;
31347;SDS011;21711;49.708;18.568;2023-03-23T16:21:25;3.90;;;1.92;;
31347;SDS011;21711;49.708;18.568;2023-03-23T16:23:53;2.90;;;1.73;;
31347;SDS011;21711;49.708;18.568;2023-03-23T16:26:22;6.43;;;1.95;;
31347;SDS011;21711;49.708;18.568;2023-03-23T16:28:50;3.55;;;1.73;;
31347;SDS011;21711;49.708;18.568;2023-03-23T16:31:28;4.90;;;1.60;;
31347;SDS011;21711;49.708;18.568;2023-03-23T16:33:55;4.80;;;1.90;;
31347;SDS011;21711;49.708;18.568;2023-03-23T16:36:23;3.58;;;2.13;;
31347;SDS011;21711;49.708;18.568;2023-03-23T16:38:50;3.38;;;2.15;;
31347;SDS011;21711;49.708;18.568;2023-03-23T16:41:20;3.90;;;2.20;;
31347;SDS011;21711;49.708;18.568;2023-03-23T16:43:47;3.90;;;1.98;;
31347;SDS011;21711;49.708;18.568;2023-03-23T16:46:15;8.93;;;3.10;;
31347;SDS011;21711;49.708;18.568;2023-03-23T16:48:42;4.72;;;2.17;;
31347;SDS011;21711;49.708;18.568;2023-03-23T16:51:09;2.80;;;1.85;;
31347;SDS011;21711;49.708;18.568;2023-03-23T16:53:36;4.25;;;1.95;;
31347;SDS011;21711;49.708;18.568;2023-03-23T16:56:05;8.18;;;2.80;;
31347;SDS011;21711;49.708;18.568;2023-03-23T16:58:32;7.45;;;2.67;;
31347;SDS011;21711;49.708;18.568;2023-03-23T17:00:59;3.40;;;2.15;;
31347;SDS011;21711;49.708;18.568;2023-03-23T17:03:27;5.05;;;2.60;;
31347;SDS011;21711;49.708;18.568;2023-03-23T17:05:55;7.20;;;2.35;;
31347;SDS011;21711;49.708;18.568;2023-03-23T17:08:27;8.68;;;2.65;;
31347;SDS011;21711;49.708;18.568;2023-03-23T17:10:54;5.07;;;2.20;;
31347;SDS011;21711;49.708;18.568;2023-03-23T17:13:22;7.55;;;2.70;;
31347;SDS011;21711;49.708;18.568;2023-03-23T17:15:51;5.80;;;2.50;;
31347;SDS011;21711;49.708;18.568;2023-03-23T17:18:22;6.05;;;2.75;;
31347;SDS011;21711;49.708;18.568;2023-03-23T17:20:53;5.60;;;2.67;;
31347;SDS011;21711;49.708;18.568;2023-03-23T17:23:21;4.72;;;2.50;;
31347;SDS011;21711;49.708;18.568;2023-03-23T17:25:49;11.63;;;2.55;;
31347;SDS011;21711;49.708;18.568;2023-03-23T17:28:17;3.08;;;1.83;;
31347;SDS011;21711;49.708;18.568;2023-03-23T17:30:46;5.43;;;2.58;;
31347;SDS011;21711;49.708;18.568;2023-03-23T17:33:14;4.80;;;2.55;;
31347;SDS011;21711;49.708;18.568;2023-03-23T17:35:43;3.78;;;2.25;;